sensor_id;sensor_type;location;lat;lon;timestamp;pressure;altitude;pressure_sealevel;temperature;humidity
19590;BME280;12231;42.782;23.388;2023-01-26T00:01:50;96161.63;;;0.03;100.00
19590;BME280;12231;42.782;23.388;2023-01-26T00:04:16;96166.53;;;0.15;100.00
19590;BME280;12231;42.782;23.388;2023-01-26T00:06:41;96165.75;;;0.09;100.00
19590;BME280;12231;42.782;23.388;2023-01-26T00:09:12;96160.81;;;-0.01;100.00
19590;BME280;12231;42.782;23.388;2023-01-26T00:11:38;96182.69;;;0.03;100.00
19590;BME280;12231;42.782;23.388;2023-01-26T00:14:04;96184.41;;;0.05;100.00
19590;BME280;12231;42.782;23.388;2023-01-26T00:16:29;96186.13;;;0.01;100.00
19590;BME280;12231;42.782;23.388;2023-01-26T00:18:55;96180.13;;;0.07;100.00
19590;BME280;12231;42.782;23.388;2023-01-26T00:21:21;96181.91;;;0.02;100.00
19590;BME280;12231;42.782;23.388;2023-01-26T00:23:48;96175.16;;;-0.03;100.00
19590;BME280;12231;42.782;23.388;2023-01-26T00:26:17;96184.41;;;0.03;100.00
19590;BME280;12231;42.782;23.388;2023-01-26T00:28:43;96179.34;;;0.05;100.00
19590;BME280;12231;42.782;23.388;2023-01-26T00:31:21;96193.72;;;-0.01;100.00
19590;BME280;12231;42.782;23.388;2023-01-26T00:33:47;96173.44;;;0.03;100.00
19590;BME280;12231;42.782;23.388;2023-01-26T00:36:13;96185.25;;;0.00;100.00
19590;BME280;12231;42.782;23.388;2023-01-26T00:38:39;96167.53;;;0.00;100.00
19590;BME280;12231;42.782;23.388;2023-01-26T00:41:05;96147.28;;;0.00;100.00
19590;BME280;12231;42.782;23.388;2023-01-26T00:43:31;96140.59;;;-0.05;100.00
19590;BME280;12231;42.782;23.388;2023-01-26T00:45:56;96134.59;;;0.00;100.00
19590;BME280;12231;42.782;23.388;2023-01-26T00:48:22;96129.56;;;-0.03;100.00
19590;BME280;12231;42.782;23.388;2023-01-26T00:50:49;96130.41;;;-0.01;100.00
19590;BME280;12231;42.782;23.388;2023-01-26T00:53:15;96126.19;;;-0.02;100.00
19590;BME280;12231;42.782;23.388;2023-01-26T00:55:41;96138.84;;;-0.02;100.00
19590;BME280;12231;42.782;23.388;2023-01-26T00:58:07;96131.25;;;0.00;100.00
19590;BME280;12231;42.782;23.388;2023-01-26T01:00:34;96127.81;;;0.04;100.00
19590;BME280;12231;42.782;23.388;2023-01-26T01:03:00;96139.75;;;-0.07;100.00
19590;BME280;12231;42.782;23.388;2023-01-26T01:05:28;96129.63;;;-0.07;100.00
19590;BME280;12231;42.782;23.388;2023-01-26T01:07:54;96127.09;;;-0.06;100.00
19590;BME280;12231;42.782;23.388;2023-01-26T01:10:20;96109.38;;;-0.07;100.00
19590;BME280;12231;42.782;23.388;2023-01-26T01:12:45;96116.13;;;-0.08;100.00
19590;BME280;12231;42.782;23.388;2023-01-26T01:15:11;96121.09;;;-0.02;100.00
19590;BME280;12231;42.782;23.388;2023-01-26T01:17:37;96121.19;;;-0.09;100.00
19590;BME280;12231;42.782;23.388;2023-01-26T01:20:08;96125.38;;;-0.04;100.00
19590;BME280;12231;42.782;23.388;2023-01-26T01:22:34;96123.69;;;-0.05;100.00
19590;BME280;12231;42.782;23.388;2023-01-26T01:25:00;96116.16;;;-0.11;100.00
19590;BME280;12231;42.782;23.388;2023-01-26T01:27:25;96115.31;;;-0.13;100.00
19590;BME280;12231;42.782;23.388;2023-01-26T01:29:51;96111.88;;;-0.04;100.00
19590;BME280;12231;42.782;23.388;2023-01-26T01:32:17;96122.06;;;-0.09;100.00
19590;BME280;12231;42.782;23.388;2023-01-26T01:34:42;96109.38;;;-0.09;100.00
19590;BME280;12231;42.782;23.388;2023-01-26T01:37:08;96106.81;;;-0.06;100.00
19590;BME280;12231;42.782;23.388;2023-01-26T01:39:33;96105.16;;;-0.10;100.00
19590;BME280;12231;42.782;23.388;2023-01-26T01:41:59;96093.28;;;-0.05;100.00
19590;BME280;12231;42.782;23.388;2023-01-26T01:44:24;96103.50;;;-0.11;100.00
19590;BME280;12231;42.782;23.388;2023-01-26T01:47:00;96100.09;;;-0.10;100.00
19590;BME280;12231;42.782;23.388;2023-01-26T01:49:29;96102.66;;;-0.13;100.00
19590;BME280;12231;42.782;23.388;2023-01-26T01:51:57;96102.59;;;-0.05;100.00
19590;BME280;12231;42.782;23.388;2023-01-26T01:54:38;96100.16;;;-0.14;100.00
19590;BME280;12231;42.782;23.388;2023-01-26T01:57:09;96105.97;;;-0.06;100.00
19590;BME280;12231;42.782;23.388;2023-01-26T01:59:48;96113.50;;;-0.02;100.00
19590;BME280;12231;42.782;23.388;2023-01-26T02:02:15;96110.22;;;-0.07;100.00
19590;BME280;12231;42.782;23.388;2023-01-26T02:04:41;96115.31;;;-0.13;100.00
19590;BME280;12231;42.782;23.388;2023-01-26T02:07:08;96093.44;;;-0.17;100.00
19590;BME280;12231;42.782;23.388;2023-01-26T02:09:35;96099.28;;;-0.12;100.00
19590;BME280;12231;42.782;23.388;2023-01-26T02:12:22;96106.06;;;-0.14;100.00
19590;BME280;12231;42.782;23.388;2023-01-26T02:14:51;96085.72;;;-0.06;100.00
19590;BME280;12231;42.782;23.388;2023-01-26T02:17:17;96078.94;;;-0.04;100.00
19590;BME280;12231;42.782;23.388;2023-01-26T02:22:50;96065.44;;;-0.05;100.00
19590;BME280;12231;42.782;23.388;2023-01-26T02:28:07;96056.19;;;-0.09;100.00
19590;BME280;12231;42.782;23.388;2023-01-26T02:30:32;96051.91;;;-0.02;100.00
19590;BME280;12231;42.782;23.388;2023-01-26T02:32:58;96035.91;;;-0.06;100.00
19590;BME280;12231;42.782;23.388;2023-01-26T02:35:23;96026.53;;;0.01;100.00
19590;BME280;12231;42.782;23.388;2023-01-26T02:37:49;96034.13;;;0.03;100.00
19590;BME280;12231;42.782;23.388;2023-01-26T02:40:42;96033.25;;;0.03;100.00
19590;BME280;12231;42.782;23.388;2023-01-26T02:43:09;96050.97;;;0.03;100.00
19590;BME280;12231;42.782;23.388;2023-01-26T02:45:35;96035.78;;;0.03;100.00
19590;BME280;12231;42.782;23.388;2023-01-26T02:48:02;96033.09;;;0.16;100.00
19590;BME280;12231;42.782;23.388;2023-01-26T02:50:31;96039.84;;;0.17;100.00
19590;BME280;12231;42.782;23.388;2023-01-26T02:52:57;96040.03;;;0.03;100.00
19590;BME280;12231;42.782;23.388;2023-01-26T02:55:22;96029.84;;;0.06;100.00
19590;BME280;12231;42.782;23.388;2023-01-26T02:57:54;96023.13;;;0.03;100.00
19590;BME280;12231;42.782;23.388;2023-01-26T03:00:29;96015.47;;;0.10;100.00
19590;BME280;12231;42.782;23.388;2023-01-26T03:02:59;96017.13;;;0.11;100.00
19590;BME280;12231;42.782;23.388;2023-01-26T03:05:27;96026.50;;;0.04;100.00
19590;BME280;12231;42.782;23.388;2023-01-26T03:07:52;96015.47;;;0.10;100.00
19590;BME280;12231;42.782;23.388;2023-01-26T03:10:18;96016.44;;;-0.01;100.00
19590;BME280;12231;42.782;23.388;2023-01-26T03:12:44;96011.25;;;0.07;100.00
19590;BME280;12231;42.782;23.388;2023-01-26T03:15:10;96011.25;;;0.07;100.00
19590;BME280;12231;42.782;23.388;2023-01-26T03:18:05;95997.63;;;0.17;100.00
19590;BME280;12231;42.782;23.388;2023-01-26T03:20:49;96007.81;;;0.13;100.00
19590;BME280;12231;42.782;23.388;2023-01-26T03:23:33;96005.31;;;0.11;100.00
19590;BME280;12231;42.782;23.388;2023-01-26T03:26:17;95997.00;;;0.02;100.00
19590;BME280;12231;42.782;23.388;2023-01-26T03:29:01;95981.75;;;0.05;100.00
19590;BME280;12231;42.782;23.388;2023-01-26T03:31:27;95985.94;;;0.06;100.00
19590;BME280;12231;42.782;23.388;2023-01-26T03:33:52;95979.16;;;0.09;100.00
19590;BME280;12231;42.782;23.388;2023-01-26T03:36:17;95980.06;;;0.02;100.00
19590;BME280;12231;42.782;23.388;2023-01-26T03:38:43;95967.44;;;-0.01;100.00
19590;BME280;12231;42.782;23.388;2023-01-26T03:41:08;95977.59;;;-0.03;100.00
19590;BME280;12231;42.782;23.388;2023-01-26T03:43:52;95988.66;;;-0.07;100.00
19590;BME280;12231;42.782;23.388;2023-01-26T03:46:36;95969.88;;;0.07;100.00
19590;BME280;12231;42.782;23.388;2023-01-26T03:49:20;95980.97;;;-0.01;100.00
19590;BME280;12231;42.782;23.388;2023-01-26T03:52:04;95966.75;;;-0.11;100.00
19590;BME280;12231;42.782;23.388;2023-01-26T03:54:48;95973.44;;;-0.05;100.00
19590;BME280;12231;42.782;23.388;2023-01-26T03:57:32;95966.81;;;-0.15;100.00
19590;BME280;12231;42.782;23.388;2023-01-26T03:59:57;95959.00;;;-0.02;100.00
19590;BME280;12231;42.782;23.388;2023-01-26T04:02:23;95957.38;;;-0.06;100.00
19590;BME280;12231;42.782;23.388;2023-01-26T04:05:07;95952.22;;;0.00;100.00
19590;BME280;12231;42.782;23.388;2023-01-26T04:07:51;95961.53;;;-0.02;100.00
19590;BME280;12231;42.782;23.388;2023-01-26T04:10:35;95954.09;;;-0.12;100.00
19590;BME280;12231;42.782;23.388;2023-01-26T04:13:00;95945.59;;;-0.08;100.00
19590;BME280;12231;42.782;23.388;2023-01-26T04:15:46;95941.25;;;0.02;100.00
19590;BME280;12231;42.782;23.388;2023-01-26T04:18:31;95944.69;;;-0.03;100.00
19590;BME280;12231;42.782;23.388;2023-01-26T04:21:14;95935.34;;;0.03;100.00
19590;BME280;12231;42.782;23.388;2023-01-26T04:23:58;95930.22;;;0.06;100.00
19590;BME280;12231;42.782;23.388;2023-01-26T04:26:29;95920.94;;;0.05;100.00
19590;BME280;12231;42.782;23.388;2023-01-26T04:29:08;95913.47;;;-0.05;100.00
19590;BME280;12231;42.782;23.388;2023-01-26T04:31:34;95925.34;;;-0.07;100.00
19590;BME280;12231;42.782;23.388;2023-01-26T04:34:01;95913.38;;;0.03;100.00
19590;BME280;12231;42.782;23.388;2023-01-26T04:36:27;95909.06;;;0.10;100.00
19590;BME280;12231;42.782;23.388;2023-01-26T04:38:53;95921.03;;;-0.03;100.00
19590;BME280;12231;42.782;23.388;2023-01-26T04:41:18;95908.28;;;0.59;100.00
19590;BME280;12231;42.782;23.388;2023-01-26T04:43:44;95912.28;;;0.21;100.00
19590;BME280;12231;42.782;23.388;2023-01-26T04:46:10;95925.84;;;0.15;100.00
19590;BME280;12231;42.782;23.388;2023-01-26T04:48:36;95926.78;;;0.10;100.00
19590;BME280;12231;42.782;23.388;2023-01-26T04:51:05;95924.38;;;0.00;100.00
19590;BME280;12231;42.782;23.388;2023-01-26T04:53:32;95932.69;;;0.09;100.00
19590;BME280;12231;42.782;23.388;2023-01-26T04:55:58;95911.72;;;0.00;100.00
19590;BME280;12231;42.782;23.388;2023-01-26T04:58:23;95917.56;;;0.04;100.00
19590;BME280;12231;42.782;23.388;2023-01-26T05:00:50;95914.25;;;-0.01;100.00
19590;BME280;12231;42.782;23.388;2023-01-26T05:03:16;95916.69;;;0.07;100.00
19590;BME280;12231;42.782;23.388;2023-01-26T05:05:42;95917.53;;;0.07;100.00
19590;BME280;12231;42.782;23.388;2023-01-26T05:08:07;95926.09;;;-0.02;100.00
19590;BME280;12231;42.782;23.388;2023-01-26T05:10:32;95920.06;;;0.07;100.00
19590;BME280;12231;42.782;23.388;2023-01-26T05:12:58;95918.38;;;0.08;100.00
19590;BME280;12231;42.782;23.388;2023-01-26T05:15:24;95910.78;;;0.08;100.00
19590;BME280;12231;42.782;23.388;2023-01-26T05:17:49;95927.69;;;0.06;100.00
19590;BME280;12231;42.782;23.388;2023-01-26T05:20:15;95915.91;;;0.03;100.00
19590;BME280;12231;42.782;23.388;2023-01-26T05:22:41;95914.19;;;0.03;100.00
19590;BME280;12231;42.782;23.388;2023-01-26T05:25:07;95916.66;;;0.10;100.00
19590;BME280;12231;42.782;23.388;2023-01-26T05:27:33;95911.63;;;0.07;100.00
19590;BME280;12231;42.782;23.388;2023-01-26T05:29:58;95918.41;;;0.06;100.00
19590;BME280;12231;42.782;23.388;2023-01-26T05:32:28;95915.78;;;0.11;100.00
19590;BME280;12231;42.782;23.388;2023-01-26T05:34:53;95911.72;;;-0.01;100.00
19590;BME280;12231;42.782;23.388;2023-01-26T05:37:19;95902.31;;;0.07;100.00
19590;BME280;12231;42.782;23.388;2023-01-26T05:39:44;95904.03;;;0.08;100.00
19590;BME280;12231;42.782;23.388;2023-01-26T05:42:11;95893.81;;;0.13;100.00
19590;BME280;12231;42.782;23.388;2023-01-26T05:44:36;95904.78;;;0.12;100.00
19590;BME280;12231;42.782;23.388;2023-01-26T05:47:02;95887.91;;;0.12;100.00
19590;BME280;12231;42.782;23.388;2023-01-26T05:49:28;95886.28;;;0.08;100.00
19590;BME280;12231;42.782;23.388;2023-01-26T05:51:53;95885.31;;;0.15;100.00
19590;BME280;12231;42.782;23.388;2023-01-26T05:54:18;95888.53;;;0.25;100.00
19590;BME280;12231;42.782;23.388;2023-01-26T05:56:44;95896.13;;;0.26;100.00
19590;BME280;12231;42.782;23.388;2023-01-26T05:59:09;95901.25;;;0.22;100.00
19590;BME280;12231;42.782;23.388;2023-01-26T06:01:35;95887.66;;;0.29;100.00
19590;BME280;12231;42.782;23.388;2023-01-26T06:04:02;95898.72;;;0.22;100.00
19590;BME280;12231;42.782;23.388;2023-01-26T06:06:27;95901.88;;;0.37;100.00
19590;BME280;12231;42.782;23.388;2023-01-26T06:08:52;95905.47;;;0.24;100.00
19590;BME280;12231;42.782;23.388;2023-01-26T06:11:18;95906.25;;;0.28;100.00
19590;BME280;12231;42.782;23.388;2023-01-26T06:13:43;95902.84;;;0.30;100.00
19590;BME280;12231;42.782;23.388;2023-01-26T06:16:09;95900.03;;;0.47;100.00
19590;BME280;12231;42.782;23.388;2023-01-26T06:18:34;95891.00;;;0.31;100.00
19590;BME280;12231;42.782;23.388;2023-01-26T06:20:59;95888.53;;;0.28;100.00
19590;BME280;12231;42.782;23.388;2023-01-26T06:23:26;95885.22;;;0.23;100.00
19590;BME280;12231;42.782;23.388;2023-01-26T06:25:51;95879.25;;;0.25;100.00
19590;BME280;12231;42.782;23.388;2023-01-26T06:28:17;95871.53;;;0.33;100.00
19590;BME280;12231;42.782;23.388;2023-01-26T06:30:44;95873.22;;;0.34;100.00
19590;BME280;12231;42.782;23.388;2023-01-26T06:33:10;95868.13;;;0.35;100.00
19590;BME280;12231;42.782;23.388;2023-01-26T06:35:36;95864.69;;;0.38;100.00
19590;BME280;12231;42.782;23.388;2023-01-26T06:38:01;95867.91;;;0.49;100.00
19590;BME280;12231;42.782;23.388;2023-01-26T06:40:27;95870.91;;;0.19;100.00
19590;BME280;12231;42.782;23.388;2023-01-26T06:42:52;95861.38;;;0.34;100.00
19590;BME280;12231;42.782;23.388;2023-01-26T06:45:18;95859.22;;;0.10;100.00
19590;BME280;12231;42.782;23.388;2023-01-26T06:47:45;95863.06;;;0.34;100.00
19590;BME280;12231;42.782;23.388;2023-01-26T06:50:13;95865.41;;;0.44;100.00
19590;BME280;12231;42.782;23.388;2023-01-26T06:52:40;95863.78;;;0.42;100.00
19590;BME280;12231;42.782;23.388;2023-01-26T06:55:15;95863.88;;;1.30;100.00
19590;BME280;12231;42.782;23.388;2023-01-26T06:57:41;95865.19;;;1.05;100.00
19590;BME280;12231;42.782;23.388;2023-01-26T07:00:08;95867.66;;;0.62;100.00
19590;BME280;12231;42.782;23.388;2023-01-26T07:02:33;95865.03;;;0.17;100.00
19590;BME280;12231;42.782;23.388;2023-01-26T07:04:59;95857.41;;;0.18;100.00
19590;BME280;12231;42.782;23.388;2023-01-26T07:07:24;95868.44;;;0.16;100.00
19590;BME280;12231;42.782;23.388;2023-01-26T07:09:49;95856.66;;;0.12;100.00
19590;BME280;12231;42.782;23.388;2023-01-26T07:12:15;95855.56;;;0.29;100.00
19590;BME280;12231;42.782;23.388;2023-01-26T07:14:40;95845.78;;;0.05;100.00
19590;BME280;12231;42.782;23.388;2023-01-26T07:17:06;95840.03;;;-0.06;100.00
19590;BME280;12231;42.782;23.388;2023-01-26T07:19:31;95828.50;;;0.77;100.00
19590;BME280;12231;42.782;23.388;2023-01-26T07:21:58;95833.38;;;0.89;100.00
19590;BME280;12231;42.782;23.388;2023-01-26T07:24:23;95837.94;;;0.20;100.00
19590;BME280;12231;42.782;23.388;2023-01-26T07:26:49;95839.28;;;0.42;100.00
19590;BME280;12231;42.782;23.388;2023-01-26T07:29:15;95842.88;;;0.29;100.00
19590;BME280;12231;42.782;23.388;2023-01-26T07:31:40;95844.28;;;0.47;100.00
19590;BME280;12231;42.782;23.388;2023-01-26T07:34:08;95843.66;;;0.33;100.00
19590;BME280;12231;42.782;23.388;2023-01-26T07:36:34;95838.31;;;0.48;100.00
19590;BME280;12231;42.782;23.388;2023-01-26T07:39:01;95831.91;;;0.29;100.00
19590;BME280;12231;42.782;23.388;2023-01-26T07:41:26;95843.56;;;0.39;100.00
19590;BME280;12231;42.782;23.388;2023-01-26T07:43:51;95832.31;;;0.55;100.00
19590;BME280;12231;42.782;23.388;2023-01-26T07:46:17;95827.47;;;0.41;100.00
19590;BME280;12231;42.782;23.388;2023-01-26T07:48:42;95822.03;;;0.61;100.00
19590;BME280;12231;42.782;23.388;2023-01-26T07:51:08;95812.84;;;0.57;100.00
19590;BME280;12231;42.782;23.388;2023-01-26T07:53:35;95817.81;;;0.61;100.00
19590;BME280;12231;42.782;23.388;2023-01-26T07:56:11;95815.91;;;0.72;100.00
19590;BME280;12231;42.782;23.388;2023-01-26T07:58:37;95818.59;;;0.65;100.00
19590;BME280;12231;42.782;23.388;2023-01-26T08:01:13;95814.44;;;0.61;100.00
19590;BME280;12231;42.782;23.388;2023-01-26T08:03:40;95823.81;;;0.56;100.00
19590;BME280;12231;42.782;23.388;2023-01-26T08:06:06;95814.38;;;0.64;100.00
19590;BME280;12231;42.782;23.388;2023-01-26T08:08:33;95822.03;;;0.61;100.00
19590;BME280;12231;42.782;23.388;2023-01-26T08:10:59;95819.66;;;0.53;100.00
19590;BME280;12231;42.782;23.388;2023-01-26T08:13:27;95803.47;;;0.59;100.00
19590;BME280;12231;42.782;23.388;2023-01-26T08:15:53;95799.47;;;0.49;100.00
19590;BME280;12231;42.782;23.388;2023-01-26T08:18:19;95796.78;;;0.56;100.00
19590;BME280;12231;42.782;23.388;2023-01-26T08:20:52;95801.09;;;0.51;100.00
19590;BME280;12231;42.782;23.388;2023-01-26T08:23:18;95795.13;;;0.55;100.00
19590;BME280;12231;42.782;23.388;2023-01-26T08:25:44;95795.81;;;0.63;100.00
19590;BME280;12231;42.782;23.388;2023-01-26T08:28:09;95788.94;;;0.70;100.00
19590;BME280;12231;42.782;23.388;2023-01-26T08:30:34;95793.53;;;0.48;100.00
19590;BME280;12231;42.782;23.388;2023-01-26T08:33:01;95795.72;;;0.68;100.00
19590;BME280;12231;42.782;23.388;2023-01-26T08:35:27;95789.03;;;0.64;100.00
19590;BME280;12231;42.782;23.388;2023-01-26T08:37:52;95785.72;;;0.59;100.00
19590;BME280;12231;42.782;23.388;2023-01-26T08:40:18;95780.63;;;0.62;100.00
19590;BME280;12231;42.782;23.388;2023-01-26T08:42:43;95778.88;;;0.64;100.00
19590;BME280;12231;42.782;23.388;2023-01-26T08:45:09;95778.81;;;0.68;100.00
19590;BME280;12231;42.782;23.388;2023-01-26T08:47:34;95782.06;;;0.75;100.00
19590;BME280;12231;42.782;23.388;2023-01-26T08:50:00;95774.34;;;0.81;100.00
19590;BME280;12231;42.782;23.388;2023-01-26T08:52:26;95775.88;;;0.88;100.00
19590;BME280;12231;42.782;23.388;2023-01-26T08:54:51;95775.19;;;0.80;100.00
19590;BME280;12231;42.782;23.388;2023-01-26T08:57:16;95773.53;;;0.79;100.00
19590;BME280;12231;42.782;23.388;2023-01-26T08:59:42;95784.25;;;0.91;100.00
19590;BME280;12231;42.782;23.388;2023-01-26T09:02:10;95788.47;;;0.94;100.00
19590;BME280;12231;42.782;23.388;2023-01-26T09:04:36;95795.31;;;0.89;100.00
19590;BME280;12231;42.782;23.388;2023-01-26T09:07:01;95797.94;;;0.84;100.00
19590;BME280;12231;42.782;23.388;2023-01-26T09:09:26;95792.91;;;0.83;100.00
19590;BME280;12231;42.782;23.388;2023-01-26T09:11:55;95791.06;;;0.91;100.00
19590;BME280;12231;42.782;23.388;2023-01-26T09:14:20;95785.16;;;0.89;100.00
19590;BME280;12231;42.782;23.388;2023-01-26T09:16:46;95772.66;;;0.80;100.00
19590;BME280;12231;42.782;23.388;2023-01-26T09:19:12;95775.44;;;0.68;100.00
19590;BME280;12231;42.782;23.388;2023-01-26T09:21:37;95767.19;;;0.57;100.00
19590;BME280;12231;42.782;23.388;2023-01-26T09:24:03;95770.38;;;0.68;100.00
19590;BME280;12231;42.782;23.388;2023-01-26T09:26:29;95754.88;;;0.83;100.00
19590;BME280;12231;42.782;23.388;2023-01-26T09:28:55;95758.13;;;0.89;100.00
19590;BME280;12231;42.782;23.388;2023-01-26T09:31:20;95753.00;;;0.91;100.00
19590;BME280;12231;42.782;23.388;2023-01-26T09:33:48;95749.50;;;0.96;100.00
19590;BME280;12231;42.782;23.388;2023-01-26T09:36:14;95748.41;;;1.08;100.00
19590;BME280;12231;42.782;23.388;2023-01-26T09:38:39;95733.28;;;1.03;100.00
19590;BME280;12231;42.782;23.388;2023-01-26T09:43:47;95726.81;;;0.90;100.00
19590;BME280;12231;42.782;23.388;2023-01-26T09:49:05;95736.19;;;0.85;100.00
19590;BME280;12231;42.782;23.388;2023-01-26T09:51:36;95737.81;;;0.88;100.00
19590;BME280;12231;42.782;23.388;2023-01-26T09:54:26;95740.16;;;0.98;100.00
19590;BME280;12231;42.782;23.388;2023-01-26T09:56:55;95728.75;;;0.78;100.00
19590;BME280;12231;42.782;23.388;2023-01-26T10:01:57;95727.00;;;0.80;100.00
19590;BME280;12231;42.782;23.388;2023-01-26T10:04:29;95720.50;;;0.67;100.00
19590;BME280;12231;42.782;23.388;2023-01-26T10:07:18;95721.56;;;0.57;100.00
19590;BME280;12231;42.782;23.388;2023-01-26T10:09:47;95719.56;;;0.72;100.00
19590;BME280;12231;42.782;23.388;2023-01-26T10:12:42;95717.16;;;0.66;100.00
19590;BME280;12231;42.782;23.388;2023-01-26T10:17:46;95708.53;;;0.73;100.00
19590;BME280;12231;42.782;23.388;2023-01-26T10:20:34;95709.84;;;0.92;100.00
19590;BME280;12231;42.782;23.388;2023-01-26T10:23:10;95712.44;;;0.91;100.00
19590;BME280;12231;42.782;23.388;2023-01-26T10:25:39;95701.72;;;0.77;100.00
19590;BME280;12231;42.782;23.388;2023-01-26T10:28:24;95685.75;;;0.72;100.00
19590;BME280;12231;42.782;23.388;2023-01-26T10:30:51;95677.28;;;0.73;100.00
19590;BME280;12231;42.782;23.388;2023-01-26T10:33:31;95675.50;;;0.78;100.00
19590;BME280;12231;42.782;23.388;2023-01-26T10:36:00;95668.78;;;0.75;100.00
19590;BME280;12231;42.782;23.388;2023-01-26T10:43:50;95658.06;;;0.63;100.00
19590;BME280;12231;42.782;23.388;2023-01-26T10:46:39;95639.94;;;0.81;100.00
19590;BME280;12231;42.782;23.388;2023-01-26T10:51:38;95624.50;;;0.90;100.00
19590;BME280;12231;42.782;23.388;2023-01-26T10:54:23;95613.50;;;0.91;100.00
19590;BME280;12231;42.782;23.388;2023-01-26T10:56:55;95613.25;;;1.01;100.00
19590;BME280;12231;42.782;23.388;2023-01-26T11:07:37;95594.34;;;1.48;100.00
19590;BME280;12231;42.782;23.388;2023-01-26T11:12:44;95580.78;;;1.49;100.00
19590;BME280;12231;42.782;23.388;2023-01-26T11:15:18;95569.38;;;1.65;100.00
19590;BME280;12231;42.782;23.388;2023-01-26T11:18:05;95573.78;;;1.59;100.00
19590;BME280;12231;42.782;23.388;2023-01-26T11:23:21;95564.06;;;1.07;100.00
19590;BME280;12231;42.782;23.388;2023-01-26T11:31:14;95524.38;;;2.57;100.00
19590;BME280;12231;42.782;23.388;2023-01-26T11:36:37;95523.41;;;2.05;100.00
19590;BME280;12231;42.782;23.388;2023-01-26T11:44:59;95534.75;;;1.61;100.00
19590;BME280;12231;42.782;23.388;2023-01-26T11:56:21;95513.06;;;1.82;100.00
19590;BME280;12231;42.782;23.388;2023-01-26T11:58:59;95519.56;;;1.60;100.00
19590;BME280;12231;42.782;23.388;2023-01-26T12:01:30;95522.69;;;1.71;100.00
19590;BME280;12231;42.782;23.388;2023-01-26T12:03:58;95528.53;;;1.73;100.00
19590;BME280;12231;42.782;23.388;2023-01-26T12:06:27;95511.38;;;1.81;100.00
19590;BME280;12231;42.782;23.388;2023-01-26T12:09:02;95508.63;;;1.88;100.00
19590;BME280;12231;42.782;23.388;2023-01-26T12:14:37;95516.66;;;1.73;100.00
19590;BME280;12231;42.782;23.388;2023-01-26T12:22:35;95499.69;;;1.45;100.00
19590;BME280;12231;42.782;23.388;2023-01-26T12:25:25;95484.91;;;1.59;100.00
19590;BME280;12231;42.782;23.388;2023-01-26T12:28:10;95491.72;;;1.57;100.00
19590;BME280;12231;42.782;23.388;2023-01-26T12:33:21;95469.03;;;1.51;100.00
19590;BME280;12231;42.782;23.388;2023-01-26T12:52:39;95456.53;;;1.45;100.00
19590;BME280;12231;42.782;23.388;2023-01-26T12:55:19;95457.84;;;1.25;100.00
19590;BME280;12231;42.782;23.388;2023-01-26T12:58:43;95437.16;;;1.40;100.00
19590;BME280;12231;42.782;23.388;2023-01-26T13:03:30;95443.63;;;1.52;100.00
19590;BME280;12231;42.782;23.388;2023-01-26T13:10:56;95429.69;;;1.65;100.00
19590;BME280;12231;42.782;23.388;2023-01-26T13:13:30;95434.91;;;1.61;100.00
19590;BME280;12231;42.782;23.388;2023-01-26T13:18:54;95442.91;;;1.47;100.00
19590;BME280;12231;42.782;23.388;2023-01-26T13:26:51;95433.09;;;1.33;100.00
19590;BME280;12231;42.782;23.388;2023-01-26T13:31:48;95423.00;;;1.32;100.00
19590;BME280;12231;42.782;23.388;2023-01-26T13:34:15;95424.69;;;1.33;100.00
19590;BME280;12231;42.782;23.388;2023-01-26T13:36:44;95410.94;;;1.40;100.00
19590;BME280;12231;42.782;23.388;2023-01-26T13:39:21;95411.88;;;1.37;100.00
19590;BME280;12231;42.782;23.388;2023-01-26T13:41:48;95418.97;;;1.25;100.00
19590;BME280;12231;42.782;23.388;2023-01-26T13:44:25;95414.50;;;1.34;100.00
19590;BME280;12231;42.782;23.388;2023-01-26T13:47:00;95409.19;;;1.42;100.00
19590;BME280;12231;42.782;23.388;2023-01-26T13:49:38;95405.13;;;1.36;100.00
19590;BME280;12231;42.782;23.388;2023-01-26T13:52:25;95406.28;;;1.56;100.00
19590;BME280;12231;42.782;23.388;2023-01-26T13:54:52;95416.53;;;1.22;100.00
19590;BME280;12231;42.782;23.388;2023-01-26T13:57:26;95402.06;;;1.24;100.00
19590;BME280;12231;42.782;23.388;2023-01-26T13:59:56;95405.53;;;1.21;100.00
19590;BME280;12231;42.782;23.388;2023-01-26T14:02:37;95401.63;;;1.40;100.00
19590;BME280;12231;42.782;23.388;2023-01-26T14:05:03;95403.06;;;1.49;100.00
19590;BME280;12231;42.782;23.388;2023-01-26T14:07:40;95388.88;;;1.42;100.00
19590;BME280;12231;42.782;23.388;2023-01-26T14:10:07;95375.84;;;1.54;100.00
19590;BME280;12231;42.782;23.388;2023-01-26T14:12:44;95377.78;;;1.46;100.00
19590;BME280;12231;42.782;23.388;2023-01-26T14:15:30;95365.94;;;1.45;100.00
19590;BME280;12231;42.782;23.388;2023-01-26T14:18:02;95372.63;;;1.49;100.00
19590;BME280;12231;42.782;23.388;2023-01-26T14:20:37;95375.16;;;1.49;100.00
19590;BME280;12231;42.782;23.388;2023-01-26T14:25:32;95365.00;;;2.58;100.00
19590;BME280;12231;42.782;23.388;2023-01-26T14:27:58;95371.88;;;2.28;100.00
19590;BME280;12231;42.782;23.388;2023-01-26T14:30:33;95374.31;;;2.05;100.00
19590;BME280;12231;42.782;23.388;2023-01-26T14:33:05;95375.97;;;2.06;100.00
19590;BME280;12231;42.782;23.388;2023-01-26T14:35:31;95369.91;;;1.83;100.00
19590;BME280;12231;42.782;23.388;2023-01-26T14:40:43;95362.97;;;1.60;100.00
19590;BME280;12231;42.782;23.388;2023-01-26T14:43:10;95363.88;;;1.59;100.00
19590;BME280;12231;42.782;23.388;2023-01-26T14:45:40;95361.13;;;1.65;100.00
19590;BME280;12231;42.782;23.388;2023-01-26T14:48:11;95368.63;;;1.40;100.00
19590;BME280;12231;42.782;23.388;2023-01-26T14:50:42;95363.50;;;1.42;100.00
19590;BME280;12231;42.782;23.388;2023-01-26T14:53:18;95366.69;;;1.49;100.00